Time;durP1;ratioP1;P1;durP2;ratioP2;P2;SDS_P1;SDS_P2;PMS_P1;PMS_P2;Temp;Humidity;BMP_temperature;BMP_pressure;BME280_temperature;BME280_humidity;BME280_pressure;Samples;Min_cycle;Max_cycle;Signal;HPM_P1;HPM_P2
2022/10/26 00:00:51;;;;;;;18.80;11.77;;;;;;;;;;4974548;28;20261;-77
2022/10/26 00:03:21;;;;;;;12.57;9.30;;;;;;;;;;4974596;28;20604;-77
2022/10/26 00:05:50;;;;;;;7.83;7.07;;;;;;;;;;4974240;28;20643;-77
2022/10/26 00:08:18;;;;;;;10.50;8.83;;;;;;;;;;4974650;28;20678;-77
2022/10/26 00:10:47;;;;;;;16.20;9.90;;;;;;;;;;4989104;28;20229;-77
2022/10/26 00:13:15;;;;;;;24.67;11.60;;;;;;;;;;4993876;28;20335;-77
2022/10/26 00:15:44;;;;;;;36.07;11.27;;;;;;;;;;4976929;28;20650;-78
2022/10/26 00:18:12;;;;;;;11.20;9.00;;;;;;;;;;4974529;28;20297;-77
2022/10/26 00:20:42;;;;;;;42.43;10.97;;;;;;;;;;4974396;28;20654;-77
2022/10/26 00:23:10;;;;;;;12.77;10.90;;;;;;;;;;4974273;28;20229;-78
2022/10/26 00:25:39;;;;;;;13.67;12.13;;;;;;;;;;4974431;28;20233;-78
2022/10/26 00:28:07;;;;;;;13.63;11.80;;;;;;;;;;4974148;28;20292;-78
2022/10/26 00:30:39;;;;;;;13.83;11.80;;;;;;;;;;4973623;28;20249;-77
2022/10/26 00:33:07;;;;;;;13.53;11.63;;;;;;;;;;4961096;28;20313;-77
2022/10/26 00:35:35;;;;;;;13.00;11.60;;;;;;;;;;4974173;28;20671;-77
2022/10/26 00:38:14;;;;;;;13.73;11.67;;;;;;;;;;4971576;28;21039;-77
2022/10/26 00:40:43;;;;;;;15.70;12.23;;;;;;;;;;4959438;28;20253;-77
2022/10/26 00:43:16;;;;;;;13.93;12.47;;;;;;;;;;4973974;28;20214;-77
2022/10/26 00:45:45;;;;;;;15.03;12.23;;;;;;;;;;4974230;28;20261;-77
2022/10/26 00:48:17;;;;;;;16.87;12.87;;;;;;;;;;4973655;28;20238;-77
2022/10/26 00:50:47;;;;;;;13.87;11.50;;;;;;;;;;4974083;28;20340;-77
2022/10/26 00:53:18;;;;;;;13.37;11.97;;;;;;;;;;4982111;28;20264;-77
2022/10/26 00:55:49;;;;;;;45.93;13.13;;;;;;;;;;4974011;28;20213;-77
2022/10/26 00:58:18;;;;;;;15.37;12.13;;;;;;;;;;4976792;28;20233;-77
2022/10/26 01:00:46;;;;;;;15.30;11.57;;;;;;;;;;4973819;28;20665;-77
2022/10/26 01:03:18;;;;;;;13.73;10.77;;;;;;;;;;4975458;28;20198;-77
2022/10/26 01:05:48;;;;;;;14.60;11.67;;;;;;;;;;4958279;28;20679;-77
2022/10/26 01:08:18;;;;;;;12.93;11.23;;;;;;;;;;4960545;28;20206;-77
2022/10/26 01:10:47;;;;;;;14.57;10.70;;;;;;;;;;4977793;28;20222;-77
2022/10/26 01:13:17;;;;;;;12.03;9.93;;;;;;;;;;4977098;28;20316;-77
2022/10/26 01:15:50;;;;;;;10.47;9.47;;;;;;;;;;4977124;28;20237;-77
2022/10/26 01:18:22;;;;;;;12.00;10.27;;;;;;;;;;4977043;28;20194;-77
2022/10/26 01:21:09;;;;;;;11.07;9.97;;;;;;;;;;4972320;28;20269;-77
2022/10/26 01:23:44;;;;;;;14.93;9.77;;;;;;;;;;4977170;28;20301;-77
2022/10/26 01:26:32;;;;;;;11.57;9.53;;;;;;;;;;4977177;28;20192;-77
2022/10/26 01:29:12;;;;;;;15.53;9.93;;;;;;;;;;4977157;28;20260;-77
2022/10/26 01:31:45;;;;;;;11.17;10.07;;;;;;;;;;4977098;28;20336;-77
2022/10/26 01:34:14;;;;;;;11.27;9.30;;;;;;;;;;4976852;28;20249;-77
2022/10/26 01:36:44;;;;;;;10.40;9.40;;;;;;;;;;4977607;28;20244;-77
2022/10/26 01:39:15;;;;;;;10.60;9.60;;;;;;;;;;4977035;28;20296;-77
2022/10/26 01:41:46;;;;;;;11.33;10.10;;;;;;;;;;4977023;28;20272;-77
2022/10/26 01:44:18;;;;;;;12.60;9.30;;;;;;;;;;4977254;28;20240;-77
2022/10/26 01:46:50;;;;;;;11.43;10.07;;;;;;;;;;4976951;28;20229;-77
2022/10/26 01:49:20;;;;;;;13.77;9.70;;;;;;;;;;4976600;28;20248;-77
2022/10/26 01:51:50;;;;;;;13.57;10.97;;;;;;;;;;4977077;28;20261;-77
2022/10/26 01:54:18;;;;;;;12.87;11.07;;;;;;;;;;4976527;28;20316;-77
2022/10/26 01:56:48;;;;;;;11.43;10.23;;;;;;;;;;4976372;28;20252;-78
2022/10/26 01:59:26;;;;;;;11.03;9.83;;;;;;;;;;4976566;28;20233;-77
2022/10/26 02:02:16;;;;;;;10.90;9.53;;;;;;;;;;4976316;28;20311;-77
2022/10/26 02:04:52;;;;;;;10.23;9.23;;;;;;;;;;4952153;28;20213;-77
2022/10/26 02:07:25;;;;;;;11.03;8.57;;;;;;;;;;4962149;28;20301;-77
2022/10/26 02:09:59;;;;;;;10.97;9.80;;;;;;;;;;4982248;28;20233;-77
2022/10/26 02:12:32;;;;;;;9.37;8.20;;;;;;;;;;4976558;28;20289;-77
2022/10/26 02:15:06;;;;;;;17.37;9.63;;;;;;;;;;4975049;28;20246;-77
2022/10/26 02:17:38;;;;;;;10.77;8.90;;;;;;;;;;4975877;28;20241;-78
2022/10/26 02:20:09;;;;;;;11.77;9.43;;;;;;;;;;4975980;28;20682;-77
2022/10/26 02:22:39;;;;;;;10.73;9.20;;;;;;;;;;4981938;28;20232;-77
2022/10/26 02:25:09;;;;;;;16.33;9.73;;;;;;;;;;4993226;28;20271;-78
2022/10/26 02:27:41;;;;;;;12.53;10.07;;;;;;;;;;4976283;28;20628;-77
2022/10/26 02:30:11;;;;;;;10.63;9.43;;;;;;;;;;4975228;28;20253;-77
2022/10/26 02:32:43;;;;;;;15.87;10.83;;;;;;;;;;4975760;28;20208;-78
2022/10/26 02:35:14;;;;;;;16.67;10.47;;;;;;;;;;4980802;28;20241;-78
2022/10/26 02:37:43;;;;;;;96.83;13.77;;;;;;;;;;4976172;28;20245;-78
2022/10/26 02:40:13;;;;;;;18.03;10.57;;;;;;;;;;4975753;28;20686;-77
2022/10/26 02:42:43;;;;;;;53.60;13.00;;;;;;;;;;4960966;28;20289;-78
2022/10/26 02:45:12;;;;;;;13.37;10.67;;;;;;;;;;4975230;28;20245;-78
2022/10/26 02:47:41;;;;;;;11.27;9.70;;;;;;;;;;4975337;28;20210;-77
2022/10/26 02:50:10;;;;;;;11.10;9.67;;;;;;;;;;4975194;28;20309;-78
2022/10/26 02:52:42;;;;;;;10.87;9.77;;;;;;;;;;4975515;28;20236;-77
2022/10/26 02:55:13;;;;;;;30.17;10.33;;;;;;;;;;4974909;28;20226;-77
2022/10/26 02:57:42;;;;;;;10.20;9.20;;;;;;;;;;4975566;28;20237;-77
2022/10/26 03:00:12;;;;;;;10.63;9.53;;;;;;;;;;4975296;28;20694;-77
2022/10/26 03:02:42;;;;;;;13.20;9.60;;;;;;;;;;4975747;28;20240;-77
2022/10/26 03:05:17;;;;;;;9.57;8.57;;;;;;;;;;4974682;28;20287;-77
2022/10/26 03:07:47;;;;;;;20.27;8.37;;;;;;;;;;4956282;29;20301;-77
2022/10/26 03:10:16;;;;;;;9.10;8.20;;;;;;;;;;4959513;28;20309;-77
2022/10/26 03:12:44;;;;;;;8.77;7.93;;;;;;;;;;4971296;28;20306;-77
2022/10/26 03:15:14;;;;;;;8.67;7.87;;;;;;;;;;4960680;28;20239;-77
2022/10/26 03:17:42;;;;;;;11.53;8.27;;;;;;;;;;4976537;28;20734;-77
2022/10/26 03:20:11;;;;;;;11.67;8.93;;;;;;;;;;4967443;28;20265;-77
2022/10/26 03:22:40;;;;;;;9.50;8.50;;;;;;;;;;4974872;28;20256;-77
2022/10/26 03:25:10;;;;;;;9.47;8.33;;;;;;;;;;4984183;28;20248;-78
2022/10/26 03:27:38;;;;;;;10.60;8.40;;;;;;;;;;4971996;28;20198;-78
2022/10/26 03:30:08;;;;;;;8.27;7.27;;;;;;;;;;4974404;28;20288;-77
2022/10/26 03:32:36;;;;;;;10.17;7.90;;;;;;;;;;4977278;28;20608;-78
2022/10/26 03:35:05;;;;;;;10.47;8.87;;;;;;;;;;4977448;28;20256;-78
2022/10/26 03:37:34;;;;;;;25.33;9.60;;;;;;;;;;4980347;28;20705;-78
2022/10/26 03:40:02;;;;;;;9.77;8.77;;;;;;;;;;4993673;28;20229;-77
2022/10/26 03:42:36;;;;;;;9.77;8.77;;;;;;;;;;4975540;28;20240;-78
2022/10/26 03:45:05;;;;;;;9.53;8.50;;;;;;;;;;4964347;28;20198;-78
2022/10/26 03:47:34;;;;;;;29.87;10.17;;;;;;;;;;4975468;28;20240;-77
2022/10/26 03:50:03;;;;;;;10.07;8.67;;;;;;;;;;4974716;28;20265;-78
2022/10/26 03:52:36;;;;;;;9.43;7.87;;;;;;;;;;4974524;28;20233;-77
2022/10/26 03:55:05;;;;;;;17.07;8.20;;;;;;;;;;4973850;28;20710;-78
2022/10/26 03:57:35;;;;;;;10.50;7.83;;;;;;;;;;4974364;28;20300;-77
2022/10/26 04:00:04;;;;;;;12.73;8.40;;;;;;;;;;4973457;28;20256;-78
2022/10/26 04:02:32;;;;;;;10.93;8.53;;;;;;;;;;4971751;28;20205;-78
2022/10/26 04:05:01;;;;;;;39.10;11.63;;;;;;;;;;4986910;28;20298;-78
2022/10/26 04:07:29;;;;;;;10.13;8.60;;;;;;;;;;4957269;28;20257;-78
2022/10/26 04:09:58;;;;;;;10.83;8.20;;;;;;;;;;4973965;28;20319;-77
2022/10/26 04:12:26;;;;;;;9.77;8.07;;;;;;;;;;4974209;28;20236;-78
2022/10/26 04:14:56;;;;;;;9.43;8.37;;;;;;;;;;4979698;28;20317;-78
2022/10/26 04:17:25;;;;;;;8.57;7.20;;;;;;;;;;4973293;28;20663;-78
2022/10/26 04:19:53;;;;;;;9.13;8.00;;;;;;;;;;4977243;28;20237;-77
2022/10/26 04:22:22;;;;;;;7.60;6.80;;;;;;;;;;4974314;28;20289;-77
2022/10/26 04:24:50;;;;;;;9.10;6.90;;;;;;;;;;4970519;28;20202;-78
2022/10/26 04:27:19;;;;;;;11.17;7.93;;;;;;;;;;4962609;28;20233;-78
2022/10/26 04:29:47;;;;;;;8.70;7.37;;;;;;;;;;4973508;28;20249;-78
2022/10/26 04:32:17;;;;;;;7.97;7.17;;;;;;;;;;4973993;28;20260;-78
2022/10/26 04:34:46;;;;;;;78.13;12.40;;;;;;;;;;4973786;28;20261;-78
2022/10/26 04:37:14;;;;;;;13.23;7.23;;;;;;;;;;4975240;28;20210;-77
2022/10/26 04:39:43;;;;;;;9.87;7.20;;;;;;;;;;4977783;28;20241;-77
2022/10/26 04:42:11;;;;;;;10.20;7.67;;;;;;;;;;4978063;28;20301;-77
2022/10/26 04:44:41;;;;;;;7.80;7.00;;;;;;;;;;4977675;28;20251;-77
2022/10/26 04:47:09;;;;;;;7.63;6.93;;;;;;;;;;4977344;28;20229;-78
2022/10/26 04:49:39;;;;;;;9.07;7.10;;;;;;;;;;4977540;28;20264;-78
2022/10/26 04:52:07;;;;;;;7.40;6.43;;;;;;;;;;4977697;28;20653;-78
2022/10/26 04:54:36;;;;;;;10.33;7.97;;;;;;;;;;4977086;28;20261;-78
2022/10/26 04:57:04;;;;;;;8.40;7.13;;;;;;;;;;4977998;28;20248;-78
2022/10/26 04:59:33;;;;;;;11.70;7.77;;;;;;;;;;4976881;28;20237;-79
2022/10/26 05:02:01;;;;;;;7.87;6.30;;;;;;;;;;4977355;28;20228;-78
2022/10/26 05:04:30;;;;;;;49.47;9.63;;;;;;;;;;4980181;28;20220;-78
2022/10/26 05:07:00;;;;;;;15.17;8.03;;;;;;;;;;4973265;28;20563;-78
2022/10/26 05:09:28;;;;;;;8.50;7.60;;;;;;;;;;4977967;28;20671;-78
2022/10/26 05:11:57;;;;;;;9.10;7.73;;;;;;;;;;4977208;28;20308;-78
2022/10/26 05:14:25;;;;;;;8.70;7.83;;;;;;;;;;4976281;28;20244;-78
2022/10/26 05:16:55;;;;;;;12.20;8.40;;;;;;;;;;4976661;28;20651;-78
2022/10/26 05:19:23;;;;;;;9.47;7.83;;;;;;;;;;4977007;28;20244;-78
2022/10/26 05:21:52;;;;;;;75.00;11.10;;;;;;;;;;4977075;28;20225;-78
2022/10/26 05:24:22;;;;;;;67.50;9.87;;;;;;;;;;4979584;28;20289;-79
2022/10/26 05:26:50;;;;;;;9.43;8.23;;;;;;;;;;4996926;28;20200;-78
2022/10/26 05:29:19;;;;;;;9.73;7.17;;;;;;;;;;4978344;28;20292;-78
2022/10/26 05:31:47;;;;;;;9.93;7.73;;;;;;;;;;4976613;28;20260;-77
2022/10/26 05:34:16;;;;;;;11.10;7.10;;;;;;;;;;4976747;28;20663;-78
2022/10/26 05:36:44;;;;;;;10.37;7.63;;;;;;;;;;4965738;28;20309;-78
2022/10/26 05:39:13;;;;;;;20.20;7.83;;;;;;;;;;4975119;28;20271;-77
2022/10/26 05:41:43;;;;;;;43.37;8.93;;;;;;;;;;4976661;28;20230;-79
2022/10/26 05:44:11;;;;;;;12.80;7.77;;;;;;;;;;4975970;28;20260;-77
2022/10/26 05:46:40;;;;;;;9.40;7.33;;;;;;;;;;4976568;28;20667;-77
2022/10/26 05:49:09;;;;;;;11.30;7.80;;;;;;;;;;4976398;28;20215;-77
2022/10/26 05:51:38;;;;;;;10.27;6.30;;;;;;;;;;4964981;28;20221;-77
2022/10/26 05:54:07;;;;;;;9.67;6.67;;;;;;;;;;4976224;28;20209;-77
2022/10/26 05:56:42;;;;;;;10.87;7.43;;;;;;;;;;4971545;28;20217;-77
2022/10/26 05:59:12;;;;;;;14.63;8.60;;;;;;;;;;4963021;28;20213;-77
2022/10/26 06:01:48;;;;;;;17.67;10.20;;;;;;;;;;4976103;28;20222;-77
2022/10/26 06:04:22;;;;;;;12.10;8.53;;;;;;;;;;4976375;28;20210;-77
2022/10/26 06:06:54;;;;;;;11.90;8.53;;;;;;;;;;4974468;28;20190;-77
2022/10/26 06:09:23;;;;;;;10.10;8.53;;;;;;;;;;4975947;28;20248;-77
2022/10/26 06:11:53;;;;;;;10.97;8.50;;;;;;;;;;4974384;28;20252;-77
2022/10/26 06:14:22;;;;;;;11.43;8.63;;;;;;;;;;4956921;28;20191;-77
2022/10/26 06:16:56;;;;;;;11.50;8.80;;;;;;;;;;4956862;29;20707;-78
2022/10/26 06:19:29;;;;;;;10.53;8.43;;;;;;;;;;4961787;28;20236;-78
2022/10/26 06:22:01;;;;;;;11.33;9.27;;;;;;;;;;4965121;28;20312;-77
2022/10/26 06:24:34;;;;;;;9.87;8.87;;;;;;;;;;4964995;28;20274;-77
2022/10/26 06:27:06;;;;;;;12.50;8.93;;;;;;;;;;4965001;28;20190;-77
2022/10/26 06:29:41;;;;;;;15.83;9.60;;;;;;;;;;4970736;28;20684;-77
2022/10/26 06:32:10;;;;;;;16.03;10.33;;;;;;;;;;4964901;28;20713;-77
2022/10/26 06:34:39;;;;;;;16.33;10.80;;;;;;;;;;4971880;28;20730;-77
2022/10/26 06:37:08;;;;;;;14.97;11.03;;;;;;;;;;4966026;28;20227;-77
2022/10/26 06:39:38;;;;;;;13.70;10.53;;;;;;;;;;4965726;28;20202;-77
2022/10/26 06:42:09;;;;;;;15.53;10.53;;;;;;;;;;4975452;28;20240;-77
2022/10/26 06:44:38;;;;;;;15.70;10.83;;;;;;;;;;4975691;28;20609;-77
2022/10/26 06:47:08;;;;;;;13.87;11.10;;;;;;;;;;4974928;28;20233;-77
2022/10/26 06:49:37;;;;;;;12.70;10.93;;;;;;;;;;4962926;28;20241;-78
2022/10/26 06:52:13;;;;;;;18.97;10.47;;;;;;;;;;4958639;28;20622;-77
2022/10/26 06:54:47;;;;;;;14.87;10.90;;;;;;;;;;4974739;28;20198;-77
2022/10/26 06:57:18;;;;;;;15.50;10.30;;;;;;;;;;4975621;28;20312;-77
2022/10/26 06:59:49;;;;;;;15.93;10.03;;;;;;;;;;4974434;28;20244;-77
2022/10/26 07:02:17;;;;;;;12.67;10.20;;;;;;;;;;4975539;28;20635;-77
2022/10/26 07:04:46;;;;;;;16.40;11.27;;;;;;;;;;4975121;28;20213;-77
2022/10/26 07:07:16;;;;;;;15.43;10.90;;;;;;;;;;4959435;28;20229;-77
2022/10/26 07:09:44;;;;;;;14.97;11.30;;;;;;;;;;4956139;28;20293;-78
2022/10/26 07:12:13;;;;;;;15.93;10.17;;;;;;;;;;4956664;28;20210;-77
2022/10/26 07:14:43;;;;;;;17.47;11.93;;;;;;;;;;4965800;28;20212;-78
2022/10/26 07:17:12;;;;;;;15.83;11.20;;;;;;;;;;4974074;28;20292;-77
2022/10/26 07:19:43;;;;;;;14.57;10.60;;;;;;;;;;4955394;28;20226;-77
2022/10/26 07:22:12;;;;;;;16.13;10.60;;;;;;;;;;4955770;29;20242;-77
2022/10/26 07:24:40;;;;;;;15.57;11.50;;;;;;;;;;4955984;28;20246;-77
2022/10/26 07:27:09;;;;;;;16.20;11.60;;;;;;;;;;4972187;28;20229;-78
2022/10/26 07:29:38;;;;;;;15.67;11.80;;;;;;;;;;4974367;28;20330;-77
2022/10/26 07:32:08;;;;;;;15.53;11.80;;;;;;;;;;4974343;28;20253;-78
2022/10/26 07:34:37;;;;;;;15.37;12.27;;;;;;;;;;4955727;28;20728;-77
2022/10/26 07:37:05;;;;;;;14.93;12.40;;;;;;;;;;4969264;28;20221;-78
2022/10/26 07:39:33;;;;;;;16.50;12.33;;;;;;;;;;4974647;28;20210;-78
2022/10/26 07:42:02;;;;;;;18.67;13.30;;;;;;;;;;4974301;28;20320;-78
2022/10/26 07:44:30;;;;;;;21.40;13.77;;;;;;;;;;4974720;28;20209;-77
2022/10/26 07:46:59;;;;;;;15.67;12.13;;;;;;;;;;4973055;28;22012;-78
2022/10/26 07:49:29;;;;;;;17.70;13.13;;;;;;;;;;4974347;28;20202;-77
2022/10/26 07:51:57;;;;;;;19.30;12.90;;;;;;;;;;4974727;28;20700;-77
2022/10/26 07:54:26;;;;;;;18.07;12.67;;;;;;;;;;4974810;28;20613;-77
2022/10/26 07:56:54;;;;;;;15.47;11.93;;;;;;;;;;4973396;28;20213;-78
2022/10/26 07:59:23;;;;;;;18.37;12.17;;;;;;;;;;4974436;28;20273;-78
2022/10/26 08:01:51;;;;;;;19.80;12.70;;;;;;;;;;4974523;28;20269;-78
2022/10/26 08:04:20;;;;;;;15.77;12.37;;;;;;;;;;4974169;28;20689;-78
2022/10/26 08:06:50;;;;;;;17.50;12.33;;;;;;;;;;4966443;28;20225;-78
2022/10/26 08:09:19;;;;;;;15.37;11.60;;;;;;;;;;4974327;28;20245;-77
2022/10/26 08:11:47;;;;;;;19.17;12.23;;;;;;;;;;4974315;28;20230;-77
2022/10/26 08:14:16;;;;;;;17.27;12.20;;;;;;;;;;4978329;28;20206;-77
2022/10/26 08:16:44;;;;;;;14.63;11.23;;;;;;;;;;4975390;28;20292;-77
2022/10/26 08:19:13;;;;;;;19.13;11.77;;;;;;;;;;4977705;28;20296;-77
2022/10/26 08:21:41;;;;;;;14.10;10.67;;;;;;;;;;4977925;28;20281;-77
2022/10/26 08:24:11;;;;;;;13.73;10.27;;;;;;;;;;4979033;28;20633;-77
2022/10/26 08:26:40;;;;;;;13.00;10.10;;;;;;;;;;4974869;28;20289;-77
2022/10/26 08:29:08;;;;;;;12.17;8.30;;;;;;;;;;4967430;28;20241;-77
2022/10/26 08:31:37;;;;;;;11.03;8.07;;;;;;;;;;4965586;28;20224;-77
2022/10/26 08:34:05;;;;;;;8.60;7.67;;;;;;;;;;4958483;28;20214;-77
2022/10/26 08:36:34;;;;;;;9.57;6.50;;;;;;;;;;4968710;28;20301;-77
2022/10/26 08:39:03;;;;;;;13.40;7.73;;;;;;;;;;4977234;28;20293;-78
2022/10/26 08:41:38;;;;;;;11.37;6.37;;;;;;;;;;4975404;28;20234;-77
2022/10/26 08:44:14;;;;;;;9.33;6.07;;;;;;;;;;4978566;28;20236;-78
2022/10/26 08:46:44;;;;;;;9.30;6.33;;;;;;;;;;4963553;28;20226;-78
2022/10/26 08:49:18;;;;;;;10.27;6.27;;;;;;;;;;4982094;28;20594;-78
2022/10/26 08:51:47;;;;;;;7.10;5.50;;;;;;;;;;4974552;28;20633;-78
2022/10/26 08:54:19;;;;;;;9.67;6.20;;;;;;;;;;4977963;28;20647;-77
2022/10/26 08:56:51;;;;;;;7.47;5.50;;;;;;;;;;4977310;28;20308;-78
2022/10/26 08:59:25;;;;;;;7.40;6.17;;;;;;;;;;4958593;29;20281;-77
2022/10/26 09:01:54;;;;;;;10.63;5.97;;;;;;;;;;4965856;28;20225;-77
2022/10/26 09:04:26;;;;;;;9.27;5.50;;;;;;;;;;4976668;28;20685;-78
2022/10/26 09:06:58;;;;;;;5.80;5.20;;;;;;;;;;4971122;28;20236;-78
2022/10/26 09:09:33;;;;;;;9.70;6.00;;;;;;;;;;4968580;28;20230;-77
2022/10/26 09:12:05;;;;;;;9.00;5.47;;;;;;;;;;4964184;28;20758;-78
2022/10/26 09:14:39;;;;;;;6.43;5.13;;;;;;;;;;4977682;28;20201;-78
2022/10/26 09:17:15;;;;;;;6.73;5.60;;;;;;;;;;4977168;28;20226;-78
2022/10/26 09:19:58;;;;;;;9.70;4.93;;;;;;;;;;4977291;28;20237;-77
2022/10/26 09:22:31;;;;;;;5.63;4.90;;;;;;;;;;4977235;28;20277;-77
2022/10/26 09:25:02;;;;;;;6.30;4.93;;;;;;;;;;4977514;28;20550;-77
2022/10/26 09:27:41;;;;;;;6.60;5.30;;;;;;;;;;4976442;28;20194;-77
2022/10/26 09:30:14;;;;;;;6.13;5.00;;;;;;;;;;4976639;28;20272;-77
2022/10/26 09:32:44;;;;;;;8.90;5.00;;;;;;;;;;4976402;28;20222;-78
2022/10/26 09:35:15;;;;;;;6.13;4.90;;;;;;;;;;4977077;28;20222;-78
2022/10/26 09:37:47;;;;;;;5.30;4.80;;;;;;;;;;4977014;28;20226;-78
2022/10/26 09:40:19;;;;;;;9.93;4.73;;;;;;;;;;4976580;28;20230;-77
2022/10/26 09:42:52;;;;;;;6.80;4.50;;;;;;;;;;4976544;28;20230;-77
2022/10/26 09:45:23;;;;;;;7.60;4.33;;;;;;;;;;4975702;28;20229;-77
2022/10/26 09:47:52;;;;;;;8.17;4.10;;;;;;;;;;4976448;28;20237;-77
2022/10/26 09:50:23;;;;;;;6.83;3.80;;;;;;;;;;4976549;28;20237;-77
2022/10/26 09:52:52;;;;;;;4.73;3.43;;;;;;;;;;4977291;28;20202;-77
2022/10/26 09:55:21;;;;;;;5.53;3.13;;;;;;;;;;4976683;28;20217;-78
2022/10/26 09:57:53;;;;;;;4.83;2.93;;;;;;;;;;4976233;28;20594;-77
2022/10/26 10:00:23;;;;;;;3.97;2.80;;;;;;;;;;4976031;28;20773;-77
2022/10/26 10:02:52;;;;;;;3.87;2.90;;;;;;;;;;4976778;28;20221;-77
2022/10/26 10:05:25;;;;;;;5.20;2.90;;;;;;;;;;4632564;28;9999779;-78
2022/10/26 10:08:18;;;;;;;3.40;2.53;;;;;;;;;;4956067;28;20213;-77
2022/10/26 10:10:57;;;;;;;6.68;2.85;;;;;;;;;;4970313;28;20376;-78
2022/10/26 10:13:27;;;;;;;4.97;2.60;;;;;;;;;;4966276;28;20621;-78
2022/10/26 10:15:57;;;;;;;3.13;2.70;;;;;;;;;;4975783;28;20237;-77
2022/10/26 10:18:26;;;;;;;2.88;2.60;;;;;;;;;;4976270;28;20264;-77
2022/10/26 10:20:55;;;;;;;5.50;2.38;;;;;;;;;;4976246;28;20253;-78
2022/10/26 10:23:26;;;;;;;4.28;2.53;;;;;;;;;;4976233;28;20241;-77
2022/10/26 10:26:09;;;;;;;2.90;2.00;;;;;;;;;;4970793;28;20233;-78
2022/10/26 10:28:41;;;;;;;2.92;1.65;;;;;;;;;;4969600;28;20738;-77
2022/10/26 10:31:19;;;;;;;7.20;1.98;;;;;;;;;;4976040;28;20234;-77
2022/10/26 10:33:49;;;;;;;4.18;1.77;;;;;;;;;;4978101;28;20616;-77
2022/10/26 10:36:19;;;;;;;3.92;1.65;;;;;;;;;;4974804;28;20245;-77
2022/10/26 10:38:49;;;;;;;3.42;1.90;;;;;;;;;;4975931;28;20301;-77
2022/10/26 10:41:22;;;;;;;3.42;2.03;;;;;;;;;;4974722;28;20657;-77
2022/10/26 10:43:53;;;;;;;3.60;1.85;;;;;;;;;;4975777;28;20297;-77
2022/10/26 10:46:23;;;;;;;2.60;1.65;;;;;;;;;;4975307;28;20730;-77
2022/10/26 10:48:53;;;;;;;4.40;1.80;;;;;;;;;;4975510;28;20213;-77
2022/10/26 10:51:24;;;;;;;3.55;1.92;;;;;;;;;;4975156;28;20253;-78
2022/10/26 10:53:55;;;;;;;4.55;1.80;;;;;;;;;;4975085;28;20205;-78
2022/10/26 10:56:32;;;;;;;5.65;1.83;;;;;;;;;;4974601;28;20202;-77
2022/10/26 10:59:09;;;;;;;2.58;1.73;;;;;;;;;;4976631;28;20248;-77
2022/10/26 11:01:40;;;;;;;2.03;1.48;;;;;;;;;;4968909;28;20226;-77
2022/10/26 11:04:15;;;;;;;2.50;1.45;;;;;;;;;;4966245;28;20221;-77
2022/10/26 11:06:44;;;;;;;3.60;1.73;;;;;;;;;;4973930;28;20221;-77
2022/10/26 11:09:16;;;;;;;3.90;1.63;;;;;;;;;;4989267;28;20243;-77
2022/10/26 11:11:46;;;;;;;3.35;1.60;;;;;;;;;;4975157;28;20706;-77
2022/10/26 11:14:18;;;;;;;2.53;1.42;;;;;;;;;;4975411;28;20240;-77
2022/10/26 11:16:48;;;;;;;2.97;1.70;;;;;;;;;;4985176;28;20244;-76
2022/10/26 11:19:18;;;;;;;3.08;1.67;;;;;;;;;;4983665;28;20256;-77
2022/10/26 11:21:53;;;;;;;4.78;1.88;;;;;;;;;;4982034;28;20226;-80
2022/10/26 11:24:27;;;;;;;5.85;1.80;;;;;;;;;;4993538;28;20236;-81
2022/10/26 11:27:12;;;;;;;3.42;1.50;;;;;;;;;;4989686;28;20218;-81
2022/10/26 11:29:45;;;;;;;3.85;1.50;;;;;;;;;;4991615;28;20235;-80
2022/10/26 11:32:18;;;;;;;3.58;1.40;;;;;;;;;;4994522;28;20186;-81
2022/10/26 11:34:50;;;;;;;3.28;1.50;;;;;;;;;;4996775;28;20201;-79
2022/10/26 11:37:24;;;;;;;2.38;1.80;;;;;;;;;;4999510;28;20190;-79
2022/10/26 11:40:01;;;;;;;4.30;1.45;;;;;;;;;;4998393;28;20233;-78
2022/10/26 11:42:34;;;;;;;3.42;1.77;;;;;;;;;;4994624;28;20217;-79
2022/10/26 11:45:09;;;;;;;2.10;1.40;;;;;;;;;;4998587;28;20216;-81
2022/10/26 11:47:43;;;;;;;4.28;1.60;;;;;;;;;;4993799;28;20188;-81
2022/10/26 11:50:16;;;;;;;3.13;1.70;;;;;;;;;;4995201;28;20210;-80
2022/10/26 11:52:47;;;;;;;4.60;1.70;;;;;;;;;;4992869;28;20194;-79
2022/10/26 11:55:16;;;;;;;2.40;1.60;;;;;;;;;;4995730;28;20705;-80
2022/10/26 11:57:46;;;;;;;3.33;1.75;;;;;;;;;;4989393;28;20205;-81
2022/10/26 12:00:19;;;;;;;3.78;1.75;;;;;;;;;;4980711;28;20261;-81
2022/10/26 12:02:49;;;;;;;4.03;1.60;;;;;;;;;;4991196;28;20190;-81
2022/10/26 12:05:20;;;;;;;3.20;1.80;;;;;;;;;;4991258;28;20663;-80
2022/10/26 12:07:50;;;;;;;2.72;1.60;;;;;;;;;;4992743;28;20181;-81
2022/10/26 12:10:25;;;;;;;2.80;1.77;;;;;;;;;;4996017;28;20218;-79
2022/10/26 12:12:58;;;;;;;3.10;1.90;;;;;;;;;;4994463;28;20253;-81
2022/10/26 12:15:31;;;;;;;3.20;1.42;;;;;;;;;;4992659;28;20190;-80
2022/10/26 12:18:24;;;;;;;6.25;1.48;;;;;;;;;;4992978;28;20222;-81
2022/10/26 12:21:11;;;;;;;3.13;1.70;;;;;;;;;;4993115;28;20242;-81
2022/10/26 12:23:54;;;;;;;4.18;1.40;;;;;;;;;;4987252;28;20256;-81
2022/10/26 12:26:49;;;;;;;4.50;1.90;;;;;;;;;;4996767;28;20221;-78
2022/10/26 12:29:39;;;;;;;3.33;1.65;;;;;;;;;;4987427;28;20197;-81
2022/10/26 12:32:26;;;;;;;2.63;1.45;;;;;;;;;;4985700;28;20322;-80
2022/10/26 12:35:01;;;;;;;3.40;1.35;;;;;;;;;;4986343;28;20201;-81
2022/10/26 12:37:32;;;;;;;5.40;1.60;;;;;;;;;;4985550;28;20250;-81
2022/10/26 12:40:23;;;;;;;2.55;1.75;;;;;;;;;;4986349;28;20233;-81
2022/10/26 12:42:51;;;;;;;2.05;1.33;;;;;;;;;;4980801;28;20198;-81
2022/10/26 12:45:20;;;;;;;2.97;1.50;;;;;;;;;;4988127;28;20220;-81
2022/10/26 12:48:02;;;;;;;4.30;1.50;;;;;;;;;;4990659;28;20245;-81
2022/10/26 12:50:50;;;;;;;2.67;1.60;;;;;;;;;;4983251;28;20242;-80
2022/10/26 12:53:21;;;;;;;3.58;1.70;;;;;;;;;;4976513;28;20194;-80
2022/10/26 12:55:59;;;;;;;5.72;1.52;;;;;;;;;;4982459;28;20190;-81
2022/10/26 12:58:47;;;;;;;3.05;1.65;;;;;;;;;;4985442;28;20236;-81
2022/10/26 13:01:30;;;;;;;2.72;1.50;;;;;;;;;;4991988;28;20256;-81
2022/10/26 13:04:06;;;;;;;3.55;1.75;;;;;;;;;;4978107;28;20205;-80
2022/10/26 13:06:44;;;;;;;6.75;1.60;;;;;;;;;;4989106;28;20280;-80
2022/10/26 13:09:17;;;;;;;7.85;1.80;;;;;;;;;;4986905;28;20186;-80
2022/10/26 13:11:49;;;;;;;3.15;1.40;;;;;;;;;;4982333;28;20225;-80
2022/10/26 13:14:22;;;;;;;2.65;1.60;;;;;;;;;;4984045;28;20268;-80
2022/10/26 13:16:51;;;;;;;3.10;1.48;;;;;;;;;;4991435;28;20204;-80
2022/10/26 13:19:27;;;;;;;4.97;1.60;;;;;;;;;;4994954;28;20233;-81
2022/10/26 13:21:58;;;;;;;4.72;1.58;;;;;;;;;;4990018;28;20591;-80
2022/10/26 13:24:28;;;;;;;2.08;1.45;;;;;;;;;;4987164;28;20186;-80
2022/10/26 13:27:14;;;;;;;4.32;1.50;;;;;;;;;;4988844;28;20205;-80
2022/10/26 13:29:58;;;;;;;3.60;1.60;;;;;;;;;;4979225;28;20217;-81
2022/10/26 13:32:27;;;;;;;4.55;1.80;;;;;;;;;;4981491;28;20241;-79
2022/10/26 13:34:57;;;;;;;3.55;1.63;;;;;;;;;;4981364;28;20628;-79
2022/10/26 13:37:28;;;;;;;2.90;1.60;;;;;;;;;;4981725;28;20288;-80
2022/10/26 13:39:58;;;;;;;4.03;1.50;;;;;;;;;;4980628;28;20214;-80
2022/10/26 13:42:28;;;;;;;3.10;1.70;;;;;;;;;;4981532;28;20681;-80
2022/10/26 13:45:00;;;;;;;5.88;1.75;;;;;;;;;;4983061;28;20297;-80
2022/10/26 13:47:30;;;;;;;4.22;1.40;;;;;;;;;;4984041;28;20190;-80
2022/10/26 13:50:02;;;;;;;4.43;1.52;;;;;;;;;;4980909;28;20191;-81
2022/10/26 13:52:34;;;;;;;2.08;1.35;;;;;;;;;;4979220;28;20198;-81
2022/10/26 13:55:05;;;;;;;4.32;1.65;;;;;;;;;;4985537;28;20225;-80
2022/10/26 13:57:41;;;;;;;6.90;1.77;;;;;;;;;;4993130;28;20166;-80
2022/10/26 14:00:17;;;;;;;5.65;1.90;;;;;;;;;;4989671;28;20316;-79
2022/10/26 14:02:46;;;;;;;3.38;1.90;;;;;;;;;;4989388;28;20197;-80
2022/10/26 14:05:16;;;;;;;3.53;1.73;;;;;;;;;;4991702;28;20216;-80
2022/10/26 14:07:49;;;;;;;5.35;1.85;;;;;;;;;;4991908;28;20202;-80
2022/10/26 14:10:25;;;;;;;3.63;1.63;;;;;;;;;;4990939;28;20276;-81
2022/10/26 14:12:54;;;;;;;3.28;1.60;;;;;;;;;;4989584;28;20198;-81
2022/10/26 14:15:24;;;;;;;4.57;1.83;;;;;;;;;;4985621;28;20198;-79
2022/10/26 14:17:53;;;;;;;2.40;1.70;;;;;;;;;;4984500;28;20221;-80
2022/10/26 14:20:23;;;;;;;2.70;1.80;;;;;;;;;;4987529;28;20742;-80
2022/10/26 14:22:53;;;;;;;3.85;1.77;;;;;;;;;;4985339;28;20667;-76
2022/10/26 14:25:23;;;;;;;2.00;1.70;;;;;;;;;;4975783;28;20264;-75
2022/10/26 14:28:21;;;;;;;3.30;1.92;;;;;;;;;;4975972;28;20693;-75
2022/10/26 14:30:51;;;;;;;3.80;1.83;;;;;;;;;;4956768;28;20261;-75
2022/10/26 14:33:20;;;;;;;5.53;2.20;;;;;;;;;;4973565;28;20205;-75
2022/10/26 14:35:49;;;;;;;3.00;1.70;;;;;;;;;;4975724;28;20336;-75
2022/10/26 14:38:21;;;;;;;3.83;1.95;;;;;;;;;;4975630;28;20565;-75
2022/10/26 14:40:51;;;;;;;5.82;2.03;;;;;;;;;;4967822;28;20254;-75
2022/10/26 14:43:22;;;;;;;2.58;1.80;;;;;;;;;;4972314;28;20210;-75
2022/10/26 14:45:52;;;;;;;4.53;1.52;;;;;;;;;;4974158;28;20292;-75
2022/10/26 14:48:22;;;;;;;2.92;1.90;;;;;;;;;;4974054;28;20711;-75
2022/10/26 14:51:00;;;;;;;5.97;1.92;;;;;;;;;;4975834;28;20253;-75
2022/10/26 14:53:38;;;;;;;3.92;1.80;;;;;;;;;;4977460;28;20229;-75
2022/10/26 14:56:18;;;;;;;5.55;2.50;;;;;;;;;;4974940;28;20237;-75
2022/10/26 14:58:46;;;;;;;3.78;1.73;;;;;;;;;;4975438;28;20284;-75